SI-0021 weather

Vzletišče Cerknica - Marof
Cerknica, Cerknica, Slovenia

Public forecast

Using degrees Celsius for public forecast. Weather courtesy of forecast.io.

METAR (pilot weather report)

Closest report is Ljubljana Jože Pučnik Airport, 26.9 nm (49.9 km) N. Retrieved 2019/07/20 02:30 UTC (0 seconds ago):

LJLJ 200230Z VRB01KT CAVOK 13/13 Q1018 NOSIG

TAF (pilot weather forecast)

Closest forecast is Ljubljana Jože Pučnik Airport, 26.9 nm (49.9 km) N. Retrieved 2019/07/20 03:07 UTC (0 seconds ago):

TAF LJLJ 200200Z 2003/2103 29004KT CAVOK BECMG 2007/2009 10005KT FEW060 BECMG 2010/2012 27005KT TEMPO 2012/2019 27010KT